createdAt,value
2018-10-07T00:02:08.570Z,18.85
2018-10-07T00:05:33.045Z,18.73
2018-10-07T00:08:57.496Z,18.82
2018-10-07T00:12:21.906Z,18.73
2018-10-07T00:15:46.318Z,18.67
2018-10-07T00:19:10.741Z,18.65
2018-10-07T00:22:35.262Z,18.75
2018-10-07T00:25:59.739Z,18.70
2018-10-07T00:29:24.147Z,18.64
2018-10-07T00:32:48.569Z,18.65
2018-10-07T00:36:12.987Z,18.79
2018-10-07T00:39:37.443Z,18.82
2018-10-07T00:43:01.888Z,18.64
2018-10-07T00:46:26.320Z,18.60
2018-10-07T00:49:50.745Z,18.49
2018-10-07T00:53:15.177Z,18.61
2018-10-07T00:56:39.564Z,18.49
2018-10-07T01:00:04.076Z,18.32
2018-10-07T01:03:28.477Z,18.38
2018-10-07T01:06:52.938Z,18.22
2018-10-07T01:10:17.376Z,18.15
2018-10-07T01:13:41.832Z,18.09
2018-10-07T01:17:06.616Z,18.25
2018-10-07T01:20:31.005Z,18.12
2018-10-07T01:23:55.479Z,18.26
2018-10-07T01:27:19.921Z,18.30
2018-10-07T01:30:44.470Z,18.08
2018-10-07T01:34:08.884Z,18.23
2018-10-07T01:37:33.365Z,18.34
2018-10-07T01:40:57.801Z,18.15
2018-10-07T01:44:22.225Z,18.13
2018-10-07T01:47:46.651Z,18.24
2018-10-07T01:51:11.072Z,18.15
2018-10-07T01:54:35.699Z,18.45
2018-10-07T01:58:00.332Z,18.45
2018-10-07T02:01:24.775Z,18.37
2018-10-07T02:04:52.266Z,18.31
2018-10-07T02:08:16.779Z,17.92
2018-10-07T02:11:41.342Z,17.86
2018-10-07T02:15:06.152Z,17.77
2018-10-07T02:18:30.688Z,17.76
2018-10-07T02:21:55.158Z,17.70
2018-10-07T02:25:19.597Z,17.58
2018-10-07T02:28:44.111Z,17.58
2018-10-07T02:32:08.545Z,17.51
2018-10-07T02:35:32.972Z,17.41
2018-10-07T02:38:57.402Z,17.52
2018-10-07T02:42:21.830Z,17.41
2018-10-07T02:45:46.282Z,17.22
2018-10-07T02:49:10.649Z,17.33
2018-10-07T02:52:40.209Z,17.33
2018-10-07T02:56:04.655Z,16.95
2018-10-07T02:59:29.072Z,16.96
2018-10-07T03:02:54.034Z,16.97
2018-10-07T03:06:18.497Z,16.82
2018-10-07T03:09:42.944Z,16.91
2018-10-07T03:13:07.374Z,16.74
2018-10-07T03:16:31.858Z,16.74
2018-10-07T03:19:56.468Z,16.91
2018-10-07T03:23:21.021Z,16.70
2018-10-07T03:26:45.508Z,16.49
2018-10-07T03:30:09.958Z,16.15
2018-10-07T03:33:34.375Z,16.04
2018-10-07T03:36:58.969Z,15.92
2018-10-07T03:40:23.413Z,15.75
2018-10-07T03:43:47.863Z,15.85
2018-10-07T03:47:12.407Z,15.84
2018-10-07T03:50:36.835Z,15.95
2018-10-07T03:54:01.248Z,15.67
2018-10-07T03:57:25.633Z,16.02
2018-10-07T04:00:50.151Z,15.87
2018-10-07T04:04:14.622Z,15.80
2018-10-07T04:07:39.088Z,16.02
2018-10-07T04:11:03.475Z,16.07
2018-10-07T04:14:27.997Z,15.92
2018-10-07T04:17:52.428Z,15.88
2018-10-07T04:21:16.839Z,15.72
2018-10-07T04:24:41.377Z,15.60
2018-10-07T04:28:05.783Z,15.46
2018-10-07T04:31:30.196Z,15.38
2018-10-07T04:34:54.603Z,15.46
2018-10-07T04:38:19.060Z,15.40
2018-10-07T04:41:44.314Z,15.43
2018-10-07T04:45:08.769Z,15.42
2018-10-07T04:48:33.261Z,15.21
2018-10-07T04:51:57.700Z,15.10
2018-10-07T04:55:22.093Z,15.06
2018-10-07T04:58:53.214Z,15.13
2018-10-07T05:02:17.674Z,15.17
2018-10-07T05:05:42.086Z,14.98
2018-10-07T05:09:11.133Z,15.17
2018-10-07T05:12:35.722Z,15.25
2018-10-07T05:16:04.090Z,15.18
2018-10-07T05:19:28.514Z,15.22
2018-10-07T05:22:52.909Z,15.18
2018-10-07T05:26:17.361Z,15.11
2018-10-07T05:29:41.800Z,15.04
2018-10-07T05:33:06.285Z,15.25
2018-10-07T05:36:30.735Z,15.10
2018-10-07T05:39:55.183Z,15.21
2018-10-07T05:43:19.769Z,15.00
2018-10-07T05:46:44.189Z,15.07
2018-10-07T05:50:08.665Z,14.98
2018-10-07T05:53:33.061Z,15.08
2018-10-07T05:56:57.458Z,15.08
2018-10-07T06:00:21.920Z,14.94
2018-10-07T06:04:34.296Z,14.86
2018-10-07T06:07:58.849Z,14.89
2018-10-07T06:11:23.253Z,14.90
2018-10-07T06:15:04.718Z,14.71
2018-10-07T06:18:29.173Z,14.79
2018-10-07T06:21:53.595Z,14.76
2018-10-07T06:25:18.039Z,14.81
2018-10-07T06:28:42.438Z,14.89
2018-10-07T06:32:06.925Z,14.88
2018-10-07T06:35:31.411Z,14.66
2018-10-07T06:38:55.937Z,14.77
2018-10-07T06:42:20.369Z,14.74
2018-10-07T06:45:44.829Z,14.75
2018-10-07T06:49:09.292Z,14.80
2018-10-07T06:52:33.911Z,14.86
2018-10-07T06:55:58.382Z,14.65
2018-10-07T06:59:22.785Z,14.90
2018-10-07T07:02:47.225Z,15.13
2018-10-07T07:06:11.650Z,15.02
2018-10-07T07:09:36.051Z,14.73
2018-10-07T07:13:00.553Z,14.87
2018-10-07T07:16:24.963Z,14.96
2018-10-07T07:19:49.613Z,14.84
2018-10-07T07:23:14.028Z,15.09
2018-10-07T07:26:38.437Z,15.02
2018-10-07T07:30:02.837Z,14.92
2018-10-07T07:33:27.288Z,14.96
2018-10-07T07:36:51.742Z,14.90
2018-10-07T07:40:16.161Z,15.11
2018-10-07T07:43:40.669Z,15.01
2018-10-07T07:47:05.135Z,14.96
2018-10-07T07:50:29.726Z,15.06
2018-10-07T07:53:54.164Z,14.94
2018-10-07T07:57:18.771Z,14.95
2018-10-07T08:00:43.164Z,15.16
2018-10-07T08:04:07.607Z,15.30
2018-10-07T08:07:33.036Z,15.08
2018-10-07T08:10:57.450Z,15.50
2018-10-07T08:14:21.857Z,15.75
2018-10-07T08:17:46.257Z,15.79
2018-10-07T08:21:13.493Z,15.67
2018-10-07T08:24:37.950Z,15.62
2018-10-07T08:28:09.374Z,15.44
2018-10-07T08:31:33.794Z,15.59
2018-10-07T08:34:58.292Z,15.61
2018-10-07T08:38:22.768Z,15.50
2018-10-07T08:41:48.186Z,15.81
2018-10-07T08:45:17.859Z,16.05
2018-10-07T08:48:42.340Z,16.08
2018-10-07T08:52:06.764Z,16.51
2018-10-07T08:55:31.161Z,16.63
2018-10-07T08:58:55.610Z,16.86
2018-10-07T09:02:20.123Z,16.97
2018-10-07T09:05:47.104Z,17.06
2018-10-07T09:09:12.411Z,17.32
2018-10-07T09:12:37.004Z,17.20
2018-10-07T09:16:01.525Z,17.25
2018-10-07T09:19:25.956Z,17.46
2018-10-07T09:22:50.705Z,17.71
2018-10-07T09:26:15.136Z,18.31
2018-10-07T09:29:39.669Z,18.84
2018-10-07T09:33:04.144Z,20.18
2018-10-07T09:36:28.747Z,20.62
2018-10-07T09:39:53.323Z,23.06
2018-10-07T09:43:17.695Z,23.54
2018-10-07T09:46:42.189Z,26.42
2018-10-07T09:50:06.718Z,28.04
2018-10-07T09:53:31.144Z,28.02
2018-10-07T09:56:55.539Z,27.54
2018-10-07T10:00:25.143Z,26.91
2018-10-07T10:03:49.617Z,29.60
2018-10-07T10:07:17.383Z,29.67
2018-10-07T10:10:42.826Z,28.65
2018-10-07T10:14:07.389Z,29.15
2018-10-07T10:17:31.924Z,30.29
2018-10-07T10:21:05.156Z,29.77
2018-10-07T10:27:02.445Z,30.17
2018-10-07T10:30:42.407Z,29.72
2018-10-07T10:34:17.712Z,30.64
2018-10-07T10:38:12.803Z,30.21
2018-10-07T10:41:44.921Z,28.94
2018-10-07T10:45:13.816Z,31.24
2018-10-07T10:48:44.377Z,30.58
2018-10-07T10:54:25.588Z,30.54
2018-10-07T10:57:55.290Z,30.88
2018-10-07T11:03:40.927Z,30.10
2018-10-07T11:07:16.030Z,30.49
2018-10-07T11:10:51.776Z,30.06
2018-10-07T11:15:32.317Z,31.21
2018-10-07T11:19:10.904Z,31.86
2018-10-07T11:23:19.155Z,33.08
2018-10-07T11:27:04.375Z,32.21
2018-10-07T11:32:47.036Z,31.33
2018-10-07T11:36:26.291Z,30.91
2018-10-07T11:41:06.701Z,30.30
2018-10-07T11:45:40.137Z,31.06
2018-10-07T11:49:12.534Z,30.13
2018-10-07T11:52:53.457Z,29.28
2018-10-07T11:56:17.798Z,28.84
2018-10-07T11:59:42.196Z,30.82
2018-10-07T12:03:06.665Z,31.04
2018-10-07T12:06:31.083Z,32.73
2018-10-07T12:09:55.495Z,31.90
2018-10-07T12:13:19.943Z,33.12
2018-10-07T12:16:44.444Z,33.81
2018-10-07T12:20:08.944Z,34.38
2018-10-07T12:23:33.379Z,35.10
2018-10-07T12:26:57.809Z,34.20
2018-10-07T12:30:22.266Z,35.02
2018-10-07T12:33:46.664Z,36.28
2018-10-07T12:37:11.096Z,35.64
2018-10-07T12:40:35.556Z,36.81
2018-10-07T12:44:00.111Z,37.27
2018-10-07T12:47:24.536Z,37.34
2018-10-07T12:50:48.942Z,37.38
2018-10-07T12:54:13.512Z,38.84
2018-10-07T12:57:37.940Z,38.33
2018-10-07T13:01:02.402Z,37.33
2018-10-07T13:04:26.828Z,37.53
2018-10-07T13:07:51.387Z,37.70
2018-10-07T13:11:15.837Z,35.90
2018-10-07T13:14:40.263Z,37.98
2018-10-07T13:18:04.664Z,40.25
2018-10-07T13:21:29.146Z,38.47
2018-10-07T13:24:53.574Z,38.44
2018-10-07T13:28:17.988Z,38.65
2018-10-07T13:31:42.473Z,36.84
2018-10-07T13:35:06.942Z,35.06
2018-10-07T13:38:31.378Z,37.21
2018-10-07T13:41:55.799Z,37.90
2018-10-07T13:45:20.235Z,35.12
2018-10-07T13:48:44.655Z,35.80
2018-10-07T13:52:09.097Z,34.94
2018-10-07T13:55:33.476Z,35.07
2018-10-07T13:58:57.974Z,33.25
2018-10-07T14:02:22.432Z,31.76
2018-10-07T14:05:46.845Z,28.90
2018-10-07T14:09:11.311Z,30.74
2018-10-07T14:12:35.735Z,29.85
2018-10-07T14:16:00.168Z,29.65
2018-10-07T14:19:24.595Z,28.36
2018-10-07T14:22:49.008Z,28.16
2018-10-07T14:26:13.441Z,27.90
2018-10-07T14:29:37.920Z,29.40
2018-10-07T14:33:02.327Z,28.20
2018-10-07T14:36:26.775Z,28.57
2018-10-07T14:39:51.216Z,28.71
2018-10-07T14:43:15.671Z,30.20
2018-10-07T14:46:40.158Z,29.85
2018-10-07T14:50:04.703Z,30.82
2018-10-07T14:53:30.383Z,29.68
2018-10-07T14:56:54.760Z,30.92
2018-10-07T15:00:19.220Z,30.97
2018-10-07T15:03:43.630Z,30.59
2018-10-07T15:07:08.081Z,31.18
2018-10-07T15:10:32.463Z,32.03
2018-10-07T15:13:56.948Z,32.08
2018-10-07T15:17:21.377Z,31.64
2018-10-07T15:20:45.785Z,32.94
2018-10-07T15:24:10.251Z,31.75
2018-10-07T15:27:34.693Z,31.13
2018-10-07T15:30:59.198Z,29.33
2018-10-07T15:34:23.655Z,28.34
2018-10-07T15:37:48.081Z,28.81
2018-10-07T15:41:12.497Z,30.07
2018-10-07T15:44:37.035Z,30.30
2018-10-07T15:48:01.477Z,31.44
2018-10-07T15:51:25.967Z,29.62
2018-10-07T15:54:50.555Z,27.74
2018-10-07T15:58:14.995Z,26.12
2018-10-07T16:01:39.466Z,24.20
2018-10-07T16:05:04.065Z,23.37
2018-10-07T16:08:28.498Z,22.27
2018-10-07T16:11:52.934Z,21.93
2018-10-07T16:15:17.414Z,21.78
2018-10-07T16:18:41.931Z,21.51
2018-10-07T16:22:06.462Z,21.36
2018-10-07T16:25:30.944Z,20.91
2018-10-07T16:28:55.350Z,20.71
2018-10-07T16:32:19.814Z,20.34
2018-10-07T16:35:44.294Z,20.18
2018-10-07T16:39:09.033Z,19.85
2018-10-07T16:42:33.408Z,19.54
2018-10-07T16:45:57.840Z,19.47
2018-10-07T16:49:22.362Z,19.47
2018-10-07T16:52:46.838Z,19.18
2018-10-07T16:56:11.409Z,18.82
2018-10-07T16:59:35.816Z,18.73
2018-10-07T17:03:00.319Z,18.38
2018-10-07T17:06:24.737Z,18.12
2018-10-07T17:09:49.149Z,18.27
2018-10-07T17:13:13.763Z,18.14
2018-10-07T17:16:38.064Z,18.13
2018-10-07T17:20:02.511Z,17.89
2018-10-07T17:23:26.946Z,17.73
2018-10-07T17:26:51.429Z,17.86
2018-10-07T17:30:15.856Z,17.62
2018-10-07T17:33:40.284Z,17.43
2018-10-07T17:37:04.713Z,17.41
2018-10-07T17:40:29.127Z,17.45
2018-10-07T17:43:53.708Z,17.03
2018-10-07T17:47:18.330Z,17.05
2018-10-07T17:50:42.837Z,17.06
2018-10-07T17:54:07.452Z,16.99
2018-10-07T17:57:31.900Z,16.75
2018-10-07T18:00:56.355Z,16.81
2018-10-07T18:04:20.800Z,16.52
2018-10-07T18:07:45.205Z,16.45
2018-10-07T18:11:09.697Z,16.35
2018-10-07T18:14:34.129Z,16.20
2018-10-07T18:17:58.536Z,16.02
2018-10-07T18:21:22.964Z,16.08
2018-10-07T18:24:47.452Z,15.92
2018-10-07T18:28:11.955Z,15.95
2018-10-07T18:31:36.395Z,15.83
2018-10-07T18:35:01.265Z,15.88
2018-10-07T18:38:25.694Z,15.66
2018-10-07T18:41:50.094Z,15.77
2018-10-07T18:45:14.522Z,15.67
2018-10-07T18:48:39.006Z,15.27
2018-10-07T18:52:03.528Z,15.24
2018-10-07T18:55:30.804Z,15.30
2018-10-07T18:58:55.342Z,15.32
2018-10-07T19:02:20.273Z,15.34
2018-10-07T19:05:44.703Z,15.35
2018-10-07T19:09:10.942Z,15.20
2018-10-07T19:12:35.422Z,15.32
2018-10-07T19:15:59.833Z,15.26
2018-10-07T19:19:24.239Z,15.09
2018-10-07T19:22:48.603Z,15.18
2018-10-07T19:26:13.007Z,15.09
2018-10-07T19:29:37.470Z,14.86
2018-10-07T19:33:01.867Z,14.79
2018-10-07T19:36:26.294Z,14.84
2018-10-07T19:39:50.688Z,14.50
2018-10-07T19:43:15.111Z,14.53
2018-10-07T19:46:39.540Z,14.51
2018-10-07T19:50:03.957Z,14.38
2018-10-07T19:53:28.445Z,14.20
2018-10-07T19:56:52.922Z,14.28
2018-10-07T20:00:17.395Z,14.11
2018-10-07T20:03:41.950Z,13.89
2018-10-07T20:07:06.563Z,14.02
2018-10-07T20:10:32.400Z,13.85
2018-10-07T20:13:56.804Z,13.85
2018-10-07T20:17:21.186Z,13.66
2018-10-07T20:20:45.634Z,13.54
2018-10-07T20:24:10.087Z,13.55
2018-10-07T20:27:34.536Z,13.60
2018-10-07T20:30:58.973Z,13.53
2018-10-07T20:34:23.421Z,13.42
2018-10-07T20:37:48.564Z,13.52
2018-10-07T20:41:13.034Z,13.28
2018-10-07T20:44:37.457Z,13.27
2018-10-07T20:48:01.934Z,13.22
2018-10-07T20:51:26.429Z,13.12
2018-10-07T20:54:50.894Z,13.15
2018-10-07T20:58:15.430Z,13.07
2018-10-07T21:01:39.874Z,13.02
2018-10-07T21:05:04.351Z,13.05
2018-10-07T21:08:28.766Z,12.99
2018-10-07T21:11:53.278Z,12.88
2018-10-07T21:15:17.671Z,12.56
2018-10-07T21:18:42.106Z,12.70
2018-10-07T21:22:06.531Z,12.72
2018-10-07T21:25:30.941Z,12.56
2018-10-07T21:28:55.390Z,12.32
2018-10-07T21:32:19.841Z,12.31
2018-10-07T21:35:44.324Z,12.21
2018-10-07T21:39:09.996Z,12.16
2018-10-07T21:42:34.465Z,12.19
2018-10-07T21:45:58.924Z,12.18
2018-10-07T21:49:23.420Z,12.20
2018-10-07T21:52:47.931Z,12.10
2018-10-07T21:56:12.439Z,11.95
2018-10-07T21:59:36.970Z,12.14
2018-10-07T22:03:01.451Z,11.96
2018-10-07T22:06:25.863Z,11.78
2018-10-07T22:09:50.290Z,11.93
2018-10-07T22:13:14.778Z,11.69
2018-10-07T22:16:43.155Z,11.69
2018-10-07T22:20:07.735Z,11.74
2018-10-07T22:23:32.164Z,11.65
2018-10-07T22:26:56.644Z,11.73
2018-10-07T22:30:21.086Z,11.62
2018-10-07T22:33:45.572Z,11.52
2018-10-07T22:37:10.102Z,11.56
2018-10-07T22:40:34.852Z,11.49
2018-10-07T22:43:59.402Z,11.43
2018-10-07T22:47:23.873Z,11.39
2018-10-07T22:50:49.145Z,11.35
2018-10-07T22:54:13.709Z,11.31
2018-10-07T22:57:38.447Z,11.42
2018-10-07T23:01:03.013Z,11.58
2018-10-07T23:04:31.030Z,11.28
2018-10-07T23:07:55.458Z,11.08
2018-10-07T23:11:19.858Z,10.93
2018-10-07T23:14:44.250Z,10.98
2018-10-07T23:18:08.670Z,10.95
2018-10-07T23:21:33.048Z,10.88
2018-10-07T23:24:57.465Z,10.90
2018-10-07T23:28:21.954Z,10.85
2018-10-07T23:31:46.356Z,10.75
2018-10-07T23:35:10.797Z,10.76
2018-10-07T23:38:35.183Z,10.75
2018-10-07T23:41:59.638Z,10.67
2018-10-07T23:45:24.028Z,10.70
2018-10-07T23:48:48.457Z,10.64
2018-10-07T23:52:13.121Z,10.50
2018-10-07T23:55:37.443Z,10.60
2018-10-07T23:59:08.613Z,10.52
